Time;durP1;ratioP1;P1;durP2;ratioP2;P2;SDS_P1;SDS_P2;PMS_P1;PMS_P2;Temp;Humidity;BMP_temperature;BMP_pressure;BME280_temperature;BME280_humidity;BME280_pressure;Samples;Min_cycle;Max_cycle;Signal;HPM_P1;HPM_P2
2022/09/06 00:02:13;;;;;;;8.88;5.75;;;20.50;99.90;;;;;;5108492;28;20381;-86
2022/09/06 00:04:38;;;;;;;8.75;5.65;;;20.60;99.90;;;;;;5110699;28;20035;-85
2022/09/06 00:07:04;;;;;;;7.22;5.63;;;20.50;99.90;;;;;;5104711;28;20040;-85
2022/09/06 00:09:30;;;;;;;7.90;5.63;;;20.50;99.90;;;;;;5109620;28;20130;-85
2022/09/06 00:11:55;;;;;;;8.30;5.82;;;20.50;99.90;;;;;;5107935;28;20062;-86
2022/09/06 00:14:21;;;;;;;8.10;5.68;;;20.50;99.90;;;;;;5092912;28;20042;-86
2022/09/06 00:16:46;;;;;;;7.32;5.60;;;20.50;99.90;;;;;;5107775;28;20047;-86
2022/09/06 00:19:12;;;;;;;8.75;6.10;;;20.40;99.90;;;;;;5109313;28;20440;-87
2022/09/06 00:21:37;;;;;;;9.13;5.93;;;20.40;99.90;;;;;;5108276;28;20047;-88
2022/09/06 00:24:03;;;;;;;9.02;5.78;;;20.40;99.90;;;;;;5107952;28;20048;-88
2022/09/06 00:26:29;;;;;;;9.25;6.10;;;20.30;99.90;;;;;;5091756;28;20469;-87
2022/09/06 00:28:54;;;;;;;8.75;5.70;;;20.30;99.90;;;;;;5108607;28;20043;-85
2022/09/06 00:31:22;;;;;;;8.13;5.53;;;20.30;99.90;;;;;;5109302;28;20097;-86
2022/09/06 00:33:49;;;;;;;10.43;6.00;;;20.30;99.90;;;;;;5107308;28;20075;-86
2022/09/06 00:36:15;;;;;;;8.82;6.10;;;20.20;99.90;;;;;;5107840;28;20415;-86
2022/09/06 00:38:41;;;;;;;9.50;5.72;;;20.20;99.90;;;;;;5109230;28;20044;-87
2022/09/06 00:41:10;;;;;;;9.35;6.20;;;20.20;99.90;;;;;;5107291;28;20058;-87
2022/09/06 00:43:36;;;;;;;9.07;6.45;;;20.10;99.90;;;;;;5109506;28;20516;-88
2022/09/06 00:46:02;;;;;;;9.70;6.63;;;20.10;99.90;;;;;;5091837;28;20147;-87
2022/09/06 00:48:28;;;;;;;8.90;6.00;;;20.00;99.90;;;;;;5107135;28;20598;-86
2022/09/06 00:50:59;;;;;;;9.23;6.20;;;20.00;99.90;;;;;;5109363;28;20118;-85
2022/09/06 00:53:25;;;;;;;9.18;6.00;;;19.90;99.90;;;;;;5108970;28;20043;-86
2022/09/06 00:55:52;;;;;;;9.57;6.63;;;19.90;99.90;;;;;;5109604;28;20035;-87
2022/09/06 00:58:18;;;;;;;7.88;6.07;;;19.90;99.90;;;;;;5110326;28;20059;-87
2022/09/06 01:00:44;;;;;;;8.55;6.50;;;19.80;99.90;;;;;;5110239;28;20036;-86
2022/09/06 01:03:10;;;;;;;9.63;6.13;;;19.80;99.90;;;;;;5105369;28;20432;-86
2022/09/06 01:05:56;;;;;;;9.80;6.38;;;19.80;99.90;;;;;;5109713;28;20087;-86
2022/09/06 01:08:46;;;;;;;8.77;6.00;;;19.70;99.90;;;;;;5081099;28;20127;-87
2022/09/06 01:11:33;;;;;;;8.48;6.00;;;19.70;99.90;;;;;;5107565;28;20058;-86
2022/09/06 01:14:33;;;;;;;10.40;6.10;;;19.60;99.90;;;;;;5109343;28;20040;-85
2022/09/06 01:17:16;;;;;;;10.68;6.32;;;19.50;99.90;;;;;;5083425;28;20047;-85
2022/09/06 01:20:08;;;;;;;10.75;6.85;;;19.60;99.90;;;;;;5090235;28;20043;-86
2022/09/06 01:23:15;;;;;;;10.05;6.50;;;19.50;99.90;;;;;;5102789;28;20044;-87
2022/09/06 01:26:04;;;;;;;9.48;6.78;;;19.40;99.90;;;;;;5098434;28;20059;-87
2022/09/06 01:28:47;;;;;;;9.77;6.70;;;19.30;99.90;;;;;;5108076;28;20127;-86
2022/09/06 01:31:24;;;;;;;9.40;6.65;;;19.30;99.90;;;;;;5109342;28;20051;-85
2022/09/06 01:34:02;;;;;;;9.63;6.85;;;19.20;99.90;;;;;;5100735;28;20554;-85
2022/09/06 01:36:47;;;;;;;10.20;7.53;;;19.20;99.90;;;;;;5091380;28;20043;-85
2022/09/06 01:39:26;;;;;;;10.00;7.00;;;19.20;99.90;;;;;;5118525;27;20122;-86
2022/09/06 01:41:53;;;;;;;9.52;7.57;;;19.20;99.90;;;;;;5088835;28;20036;-85
2022/09/06 01:44:20;;;;;;;11.18;7.93;;;19.10;99.90;;;;;;5109552;28;20054;-85
2022/09/06 01:47:15;;;;;;;10.75;8.10;;;19.10;99.90;;;;;;5107001;28;20048;-85
2022/09/06 01:50:09;;;;;;;10.02;7.95;;;19.00;99.90;;;;;;5069102;28;20044;-86
2022/09/06 01:53:02;;;;;;;10.50;8.32;;;19.00;99.90;;;;;;5084619;28;20385;-86
2022/09/06 01:55:39;;;;;;;10.18;7.63;;;19.00;99.90;;;;;;5105240;28;20043;-87
2022/09/06 01:58:30;;;;;;;10.57;7.93;;;19.00;99.90;;;;;;5103662;28;20301;-86
2022/09/06 02:01:13;;;;;;;8.88;7.55;;;18.90;99.90;;;;;;5090360;28;20117;-87
2022/09/06 02:04:11;;;;;;;9.57;7.85;;;18.90;99.90;;;;;;5107998;28;20056;-86
2022/09/06 02:06:53;;;;;;;9.13;7.88;;;18.90;99.90;;;;;;5104440;28;20047;-86
2022/09/06 02:09:22;;;;;;;8.68;7.13;;;18.90;99.90;;;;;;5108210;28;20404;-87
2022/09/06 02:11:56;;;;;;;9.18;7.30;;;18.90;99.90;;;;;;5106406;28;20047;-86
2022/09/06 02:14:34;;;;;;;11.07;8.07;;;18.90;99.90;;;;;;5110471;28;20101;-87
2022/09/06 02:17:02;;;;;;;9.55;7.60;;;18.90;99.90;;;;;;5104660;28;20047;-87
2022/09/06 02:19:48;;;;;;;10.75;8.15;;;18.80;99.90;;;;;;5103832;28;20035;-86
2022/09/06 02:22:18;;;;;;;9.75;7.80;;;18.80;99.90;;;;;;5106116;28;20040;-87
2022/09/06 02:24:48;;;;;;;9.75;8.10;;;18.80;99.90;;;;;;5091214;28;20035;-86
2022/09/06 02:27:13;;;;;;;10.65;7.32;;;18.80;99.90;;;;;;5105333;28;20500;-86
2022/09/06 02:29:39;;;;;;;9.50;7.80;;;18.80;99.90;;;;;;5104217;28;20032;-86
2022/09/06 02:32:19;;;;;;;8.93;7.88;;;18.80;99.90;;;;;;5106831;28;20043;-86
2022/09/06 02:34:45;;;;;;;11.73;8.25;;;18.80;99.90;;;;;;5102301;28;20072;-86
2022/09/06 02:37:15;;;;;;;10.10;8.07;;;18.80;99.90;;;;;;5088319;28;20392;-86
2022/09/06 02:39:41;;;;;;;10.07;7.97;;;18.80;99.90;;;;;;5099998;28;20031;-86
2022/09/06 02:42:12;;;;;;;9.68;8.35;;;18.70;99.90;;;;;;5108203;28;20081;-86
2022/09/06 02:44:37;;;;;;;;;;;18.80;99.90;;;;;;5109394;28;20048;-86
2022/09/06 02:47:03;;;;;;;10.00;8.30;;;18.60;99.90;;;;;;5104934;28;19945;-86
2022/09/06 02:49:29;;;;;;;9.50;8.50;;;18.60;99.90;;;;;;5089792;28;20050;-85
2022/09/06 02:51:55;;;;;;;10.68;8.90;;;18.60;99.90;;;;;;5104754;28;20077;-86
2022/09/06 02:54:21;;;;;;;11.18;9.38;;;18.60;99.90;;;;;;5108667;28;20114;-86
2022/09/06 02:56:47;;;;;;;12.15;9.48;;;18.60;99.90;;;;;;5087740;28;20611;-86
2022/09/06 02:59:12;;;;;;;10.15;9.05;;;18.50;99.90;;;;;;5108532;28;20069;-86
2022/09/06 03:01:38;;;;;;;11.43;9.57;;;18.50;99.90;;;;;;5105975;28;20039;-85
2022/09/06 03:04:04;;;;;;;10.18;8.77;;;18.60;99.90;;;;;;5108119;28;20351;-85
2022/09/06 03:06:30;;;;;;;12.65;9.77;;;18.50;99.90;;;;;;5103986;28;20047;-86
2022/09/06 03:08:55;;;;;;;10.80;8.90;;;18.40;99.90;;;;;;5091509;28;20035;-86
2022/09/06 03:11:21;;;;;;;11.43;9.68;;;18.40;99.90;;;;;;5106771;28;20073;-86
2022/09/06 03:13:47;;;;;;;12.13;10.23;;;18.30;99.90;;;;;;5105952;28;20043;-86
2022/09/06 03:16:12;;;;;;;12.48;9.90;;;18.30;99.90;;;;;;5105456;28;20036;-86
2022/09/06 03:18:38;;;;;;;12.00;9.23;;;18.30;99.90;;;;;;5095785;28;20104;-86
2022/09/06 03:21:04;;;;;;;12.45;10.05;;;18.30;99.90;;;;;;5100660;28;20036;-86
2022/09/06 03:23:29;;;;;;;11.02;8.75;;;18.30;99.90;;;;;;5108205;28;20042;-85
2022/09/06 03:25:55;;;;;;;11.45;8.93;;;18.30;99.90;;;;;;5102564;28;20925;-85
2022/09/06 03:28:21;;;;;;;11.32;8.45;;;18.30;99.90;;;;;;5100716;28;20044;-86
2022/09/06 03:30:48;;;;;;;11.25;9.27;;;18.30;99.90;;;;;;5102540;28;20039;-86
2022/09/06 03:33:14;;;;;;;10.00;8.57;;;18.30;99.90;;;;;;5108235;28;20412;-86
2022/09/06 03:35:45;;;;;;;10.68;8.52;;;18.30;99.90;;;;;;5104725;28;20043;-85
2022/09/06 03:38:11;;;;;;;9.32;8.30;;;18.40;99.90;;;;;;5097135;28;20114;-85
2022/09/06 03:40:36;;;;;;;10.18;8.70;;;18.40;99.90;;;;;;5100080;28;20135;-86
2022/09/06 03:43:02;;;;;;;10.73;8.45;;;18.40;99.90;;;;;;5099696;28;20051;-85
2022/09/06 03:45:27;;;;;;;9.77;8.38;;;18.40;99.90;;;;;;5099445;28;20040;-86
2022/09/06 03:47:53;;;;;;;9.40;8.35;;;18.40;99.90;;;;;;5079622;28;20032;-85
2022/09/06 03:50:19;;;;;;;10.02;8.80;;;18.40;99.90;;;;;;5080648;28;20083;-84
2022/09/06 03:52:44;;;;;;;10.07;8.80;;;18.50;99.90;;;;;;5100292;28;20036;-85
2022/09/06 03:55:10;;;;;;;10.90;8.48;;;18.40;99.90;;;;;;5097943;28;20480;-85
2022/09/06 03:57:36;;;;;;;11.10;8.80;;;18.40;99.90;;;;;;5104579;28;20054;-85
2022/09/06 04:00:03;;;;;;;11.70;9.13;;;18.40;99.90;;;;;;5099507;28;20492;-86
2022/09/06 04:02:29;;;;;;;10.77;9.13;;;18.50;99.90;;;;;;5084485;28;20052;-86
2022/09/06 04:04:54;;;;;;;11.50;9.00;;;18.50;99.90;;;;;;5098465;28;20060;-87
2022/09/06 04:07:21;;;;;;;11.57;9.02;;;18.50;99.90;;;;;;5098225;28;20043;-86
2022/09/06 04:09:47;;;;;;;13.43;8.88;;;18.60;99.90;;;;;;5101075;28;20127;-85
2022/09/06 04:12:13;;;;;;;9.85;8.65;;;18.50;99.90;;;;;;5103924;28;20133;-86
2022/09/06 04:14:38;;;;;;;10.20;8.45;;;18.50;99.90;;;;;;5100157;28;20044;-86
2022/09/06 04:17:04;;;;;;;9.80;8.45;;;18.50;99.90;;;;;;5098153;28;20482;-86
2022/09/06 04:19:29;;;;;;;9.98;8.00;;;18.50;99.90;;;;;;5101947;28;20438;-86
2022/09/06 04:21:55;;;;;;;10.38;8.93;;;18.60;99.90;;;;;;5100225;28;20039;-86
2022/09/06 04:24:21;;;;;;;9.82;8.82;;;18.60;99.90;;;;;;5099540;28;20067;-85
2022/09/06 04:26:46;;;;;;;13.75;9.05;;;18.70;99.90;;;;;;5098087;28;20437;-86
2022/09/06 04:29:12;;;;;;;11.77;8.98;;;18.70;99.90;;;;;;5103642;28;20079;-86
2022/09/06 04:31:37;;;;;;;13.75;9.25;;;18.70;99.90;;;;;;5077624;28;20101;-85
2022/09/06 04:34:03;;;;;;;11.63;8.70;;;18.70;99.90;;;;;;5091820;28;20071;-85
2022/09/06 04:36:29;;;;;;;11.63;9.07;;;18.70;99.90;;;;;;5089339;28;20047;-85
2022/09/06 04:38:54;;;;;;;11.13;9.27;;;18.80;99.90;;;;;;5109948;28;20378;-85
2022/09/06 04:41:20;;;;;;;12.27;9.60;;;18.70;99.90;;;;;;5109007;28;20507;-85
2022/09/06 04:43:46;;;;;;;11.80;9.45;;;18.70;99.90;;;;;;5108921;28;20087;-85
2022/09/06 04:46:26;;;;;;;12.73;9.43;;;18.70;99.90;;;;;;5111030;28;20487;-87
2022/09/06 04:48:53;;;;;;;11.48;9.55;;;18.70;99.90;;;;;;5109577;28;20387;-88
2022/09/06 04:51:20;;;;;;;10.35;9.25;;;18.70;99.90;;;;;;5109583;28;20036;-87
2022/09/06 04:53:46;;;;;;;12.48;10.88;;;18.60;99.90;;;;;;5109335;28;20051;-85
2022/09/06 04:56:17;;;;;;;12.65;11.15;;;18.60;99.90;;;;;;5108461;28;20055;-87
2022/09/06 04:58:45;;;;;;;12.70;11.02;;;18.60;99.90;;;;;;5086305;28;20073;-87
2022/09/06 05:01:11;;;;;;;14.10;10.93;;;18.50;99.90;;;;;;5091870;28;20051;-86
2022/09/06 05:03:36;;;;;;;19.13;12.70;;;18.50;99.90;;;;;;5109430;28;20055;-88
2022/09/06 05:06:10;;;;;;;14.95;11.50;;;18.40;99.90;;;;;;5096670;28;20395;-87
2022/09/06 05:08:37;;;;;;;13.70;11.50;;;18.40;99.90;;;;;;5101822;28;20322;-87
2022/09/06 05:11:04;;;;;;;13.30;11.45;;;18.30;99.90;;;;;;5109748;28;20059;-88
2022/09/06 05:13:29;;;;;;;12.85;11.05;;;18.30;99.90;;;;;;5108755;28;20507;-88
2022/09/06 05:15:58;;;;;;;11.93;10.60;;;18.30;99.90;;;;;;5106559;28;20036;-87
2022/09/06 05:18:23;;;;;;;12.95;11.57;;;18.30;99.90;;;;;;5107326;28;20035;-86
2022/09/06 05:20:53;;;;;;;13.65;12.23;;;18.20;99.90;;;;;;5110086;28;20127;-86
2022/09/06 05:23:22;;;;;;;13.52;12.13;;;18.20;99.90;;;;;;5108178;28;20039;-86
2022/09/06 05:25:48;;;;;;;14.40;12.88;;;18.10;99.90;;;;;;5103545;28;20050;-85
2022/09/06 05:28:15;;;;;;;14.48;12.98;;;18.00;99.90;;;;;;5108766;28;20039;-87
2022/09/06 05:30:40;;;;;;;15.15;13.65;;;18.10;99.90;;;;;;5110611;27;20039;-86
2022/09/06 05:33:08;;;;;;;15.20;12.80;;;18.10;99.90;;;;;;5105995;28;20054;-86
2022/09/06 05:35:33;;;;;;;14.73;13.25;;;18.00;99.90;;;;;;5106255;28;20036;-85
2022/09/06 05:37:59;;;;;;;15.20;13.70;;;18.00;99.90;;;;;;5106466;28;20112;-85
2022/09/06 05:40:25;;;;;;;14.52;13.23;;;18.00;99.90;;;;;;5107516;28;20035;-87
2022/09/06 05:42:51;;;;;;;13.63;12.23;;;18.00;99.90;;;;;;5108706;28;20126;-85
2022/09/06 05:45:16;;;;;;;14.57;13.02;;;18.00;99.90;;;;;;5089164;28;20059;-86
2022/09/06 05:47:42;;;;;;;14.82;12.77;;;18.00;99.90;;;;;;5104501;28;20082;-85
2022/09/06 05:50:08;;;;;;;14.93;12.70;;;18.00;99.90;;;;;;5109998;28;20059;-86
2022/09/06 05:52:34;;;;;;;14.52;13.02;;;18.00;99.90;;;;;;5108943;28;20316;-86
2022/09/06 05:55:00;;;;;;;14.35;12.95;;;18.00;99.90;;;;;;5108029;28;20035;-86
2022/09/06 05:57:26;;;;;;;15.07;13.68;;;18.00;99.90;;;;;;5104023;28;20377;-85
2022/09/06 05:59:54;;;;;;;15.18;13.57;;;18.00;99.90;;;;;;5107432;28;20084;-84
2022/09/06 06:02:21;;;;;;;15.50;13.90;;;18.00;99.90;;;;;;5108954;28;20508;-85
2022/09/06 06:04:47;;;;;;;14.60;13.20;;;18.00;99.90;;;;;;5102537;27;20489;-85
2022/09/06 06:07:13;;;;;;;15.40;13.90;;;18.10;99.90;;;;;;5109469;28;20047;-84
2022/09/06 06:09:40;;;;;;;16.88;15.07;;;18.10;99.90;;;;;;5111523;28;20032;-85
2022/09/06 06:12:06;;;;;;;16.02;14.52;;;18.00;99.90;;;;;;5089936;28;20050;-86
2022/09/06 06:14:31;;;;;;;16.55;14.95;;;18.00;99.90;;;;;;5108706;28;20051;-87
2022/09/06 06:16:57;;;;;;;16.60;15.00;;;18.00;99.90;;;;;;5106555;28;20069;-84
2022/09/06 06:19:23;;;;;;;16.90;15.30;;;18.10;99.90;;;;;;5110321;28;20058;-83
2022/09/06 06:21:48;;;;;;;15.98;14.55;;;18.10;99.90;;;;;;5091492;28;20045;-83
2022/09/06 06:24:14;;;;;;;16.73;15.07;;;18.10;99.90;;;;;;5098272;28;20051;-82
2022/09/06 06:26:39;;;;;;;15.80;14.27;;;18.20;99.90;;;;;;5105029;28;20035;-83
2022/09/06 06:29:08;;;;;;;15.50;14.00;;;18.20;99.90;;;;;;5107184;28;20036;-84
2022/09/06 06:31:35;;;;;;;15.43;13.93;;;18.30;99.90;;;;;;5107465;28;20047;-84
2022/09/06 06:34:02;;;;;;;14.50;13.10;;;18.30;99.90;;;;;;5108667;28;20395;-89
2022/09/06 06:36:30;;;;;;;16.50;14.93;;;18.30;99.90;;;;;;5115523;28;20039;-89
2022/09/06 06:38:57;;;;;;;16.05;14.43;;;18.30;99.90;;;;;;5096907;28;20495;-88
2022/09/06 06:41:25;;;;;;;15.73;14.27;;;18.30;99.90;;;;;;5104443;28;20475;-91
2022/09/06 06:43:52;;;;;;;17.20;15.63;;;18.30;99.90;;;;;;5103207;28;20040;-91
2022/09/06 06:46:18;;;;;;;16.55;14.95;;;18.30;99.90;;;;;;5106425;28;20043;-88
2022/09/06 06:48:45;;;;;;;16.48;14.88;;;18.30;99.90;;;;;;5106859;28;20040;-88
2022/09/06 06:51:17;;;;;;;16.10;14.60;;;18.40;99.90;;;;;;5131023;27;20121;-89
2022/09/06 06:53:46;;;;;;;16.08;14.50;;;18.40;99.90;;;;;;5108144;27;20073;-87
2022/09/06 06:56:26;;;;;;;16.48;14.82;;;18.50;99.90;;;;;;5101007;28;20157;-90
2022/09/06 06:58:54;;;;;;;16.65;15.15;;;18.50;99.90;;;;;;5104661;28;20091;-89
2022/09/06 07:01:21;;;;;;;16.73;15.05;;;18.60;99.90;;;;;;5108865;28;20096;-89
2022/09/06 07:03:47;;;;;;;16.77;15.18;;;18.60;99.90;;;;;;5087074;28;20063;-89
2022/09/06 07:06:13;;;;;;;16.83;15.32;;;18.70;99.90;;;;;;5107557;28;20047;-89
2022/09/06 07:08:39;;;;;;;18.17;16.48;;;18.80;99.90;;;;;;5095926;28;20397;-87
2022/09/06 07:11:06;;;;;;;17.15;15.52;;;18.90;99.90;;;;;;5101720;28;20043;-87
2022/09/06 07:13:33;;;;;;;16.45;14.82;;;19.00;99.90;;;;;;5083149;28;20400;-89
2022/09/06 07:16:19;;;;;;;17.45;15.75;;;19.00;99.90;;;;;;5093522;28;20031;-88
2022/09/06 07:18:45;;;;;;;16.92;15.23;;;19.10;99.90;;;;;;5107740;28;20054;-90
2022/09/06 07:21:15;;;;;;;16.98;15.38;;;19.20;99.90;;;;;;5109720;28;20035;-89
2022/09/06 07:23:42;;;;;;;16.80;15.27;;;19.40;99.90;;;;;;5091738;28;20092;-90
2022/09/06 07:26:14;;;;;;;16.65;14.95;;;19.40;99.90;;;;;;5085514;28;20127;-91
2022/09/06 07:28:40;;;;;;;16.90;15.00;;;19.50;99.90;;;;;;5096690;28;20459;-88
2022/09/06 07:31:06;;;;;;;17.45;14.98;;;19.60;99.90;;;;;;5088623;28;20036;-88
2022/09/06 07:33:34;;;;;;;16.55;14.85;;;19.70;99.90;;;;;;5085270;28;20510;-94
2022/09/06 07:36:02;;;;;;;16.00;14.40;;;19.80;99.90;;;;;;5077100;28;20032;-95
2022/09/06 07:38:28;;;;;;;16.75;15.15;;;19.80;99.90;;;;;;5091345;28;20101;-92
2022/09/06 07:40:57;;;;;;;15.90;14.38;;;19.90;99.90;;;;;;5108150;28;20100;-94
2022/09/06 07:43:23;;;;;;;15.50;14.10;;;20.00;99.90;;;;;;5113132;28;20074;-95
2022/09/06 07:46:00;;;;;;;16.17;14.65;;;20.10;99.90;;;;;;5099966;28;20042;-95
2022/09/06 07:48:30;;;;;;;15.32;13.82;;;20.20;99.90;;;;;;5096662;28;20046;-95
2022/09/06 07:51:10;;;;;;;16.10;14.57;;;20.30;99.90;;;;;;5109008;28;20043;-92
2022/09/06 07:53:37;;;;;;;16.25;14.02;;;20.40;99.90;;;;;;5115445;28;20043;-95
2022/09/06 07:56:05;;;;;;;15.75;14.25;;;20.50;99.90;;;;;;5077057;28;20062;-96
2022/09/06 07:58:31;;;;;;;15.80;14.30;;;20.50;99.90;;;;;;5078235;28;20412;-95
2022/09/06 08:01:31;;;;;;;16.40;14.80;;;20.50;99.90;;;;;;5097597;28;20096;-92
2022/09/06 08:04:02;;;;;;;14.43;13.02;;;20.50;99.90;;;;;;5106352;28;20052;-90
2022/09/06 08:06:30;;;;;;;16.27;14.75;;;20.60;99.90;;;;;;5105761;28;20119;-91
2022/09/06 08:08:56;;;;;;;16.42;14.77;;;20.70;99.90;;;;;;5091022;28;20082;-93
2022/09/06 08:11:24;;;;;;;15.65;14.15;;;20.70;99.90;;;;;;5112505;28;20051;-96
2022/09/06 08:13:53;;;;;;;16.27;14.57;;;20.80;99.90;;;;;;5106210;28;20078;-91
2022/09/06 08:16:19;;;;;;;16.80;15.10;;;20.90;99.90;;;;;;5102144;28;20042;-92
2022/09/06 08:18:52;;;;;;;15.95;14.48;;;20.90;99.90;;;;;;5104862;28;20173;-91
2022/09/06 08:21:19;;;;;;;15.13;13.60;;;20.90;99.90;;;;;;5111719;28;20040;-93
2022/09/06 08:23:52;;;;;;;15.52;14.02;;;21.00;99.90;;;;;;5091226;28;20073;-88
2022/09/06 08:26:20;;;;;;;15.18;13.77;;;21.00;99.90;;;;;;5091052;28;20073;-96
2022/09/06 08:28:46;;;;;;;15.05;13.57;;;21.10;99.90;;;;;;5105848;28;20035;-96
2022/09/06 08:31:16;;;;;;;14.82;13.32;;;21.20;99.90;;;;;;5088812;28;20047;-90
2022/09/06 08:33:42;;;;;;;14.75;13.25;;;21.30;99.90;;;;;;5113585;28;20065;-91
2022/09/06 08:36:09;;;;;;;14.63;13.23;;;21.50;99.90;;;;;;5088250;28;20424;-91
2022/09/06 08:38:36;;;;;;;14.63;13.00;;;21.70;99.90;;;;;;5084068;28;20045;-92
2022/09/06 08:41:32;;;;;;;14.02;12.65;;;21.80;99.90;;;;;;5088952;28;20411;-96
2022/09/06 08:44:05;;;;;;;14.38;12.95;;;22.00;99.90;;;;;;5091088;28;20131;-92
2022/09/06 08:46:51;;;;;;;13.98;12.57;;;22.30;99.90;;;;;;5127276;27;20039;-96
2022/09/06 08:49:17;;;;;;;12.27;10.98;;;22.50;99.90;;;;;;5115064;28;20039;-91
2022/09/06 08:51:54;;;;;;;12.55;10.98;;;22.60;99.90;;;;;;5110264;28;20059;-90
2022/09/06 08:54:43;;;;;;;12.77;10.48;;;22.70;99.90;;;;;;5100882;28;20039;-95
2022/09/06 08:57:27;;;;;;;12.50;10.48;;;22.90;99.90;;;;;;5113300;28;20523;-95
2022/09/06 08:59:58;;;;;;;12.35;10.43;;;23.00;99.90;;;;;;5114325;28;20035;-95
2022/09/06 09:02:24;;;;;;;14.10;10.68;;;23.00;99.90;;;;;;5097964;28;20519;-95
2022/09/06 09:05:00;;;;;;;13.00;10.73;;;23.10;99.90;;;;;;5119166;28;20051;-94
2022/09/06 09:07:39;;;;;;;11.50;10.38;;;23.10;99.90;;;;;;5120977;28;20052;-94
2022/09/06 09:10:14;;;;;;;13.13;10.73;;;23.20;99.90;;;;;;5109893;28;20028;-89
2022/09/06 09:12:45;;;;;;;11.52;9.57;;;23.30;99.90;;;;;;5122547;28;20036;-94
2022/09/06 09:15:14;;;;;;;12.18;10.90;;;23.30;99.90;;;;;;5101109;28;20044;-88
2022/09/06 09:17:39;;;;;;;10.82;8.35;;;23.40;99.90;;;;;;5126647;28;20078;-96
2022/09/06 09:20:09;;;;;;;10.32;8.38;;;23.30;99.90;;;;;;5100215;28;20039;-96
2022/09/06 09:22:36;;;;;;;9.80;8.43;;;23.30;99.90;;;;;;5099573;28;20036;-92
2022/09/06 09:25:05;;;;;;;9.73;7.80;;;23.40;99.90;;;;;;5097362;28;20070;-94
2022/09/06 09:27:32;;;;;;;10.48;8.63;;;23.30;99.90;;;;;;5107979;28;20040;-93
2022/09/06 09:30:00;;;;;;;12.68;9.48;;;23.30;99.90;;;;;;5087833;28;20055;-88
2022/09/06 09:32:31;;;;;;;12.40;9.48;;;23.30;99.90;;;;;;5095594;28;20202;-91
2022/09/06 09:35:15;;;;;;;;;;;23.30;99.90;;;;;;5126873;28;20044;-96
2022/09/06 09:37:41;;;;;;;10.07;7.55;;;23.20;99.90;;;;;;5102194;28;19924;-93
2022/09/06 09:40:15;;;;;;;13.00;9.80;;;23.30;99.90;;;;;;5112321;28;20043;-94
2022/09/06 09:42:41;;;;;;;10.95;8.95;;;23.30;99.90;;;;;;5119328;28;20043;-91
2022/09/06 09:45:27;;;;;;;13.38;10.68;;;23.30;99.90;;;;;;5098425;28;20097;-92
2022/09/06 09:47:52;;;;;;;11.70;9.38;;;23.30;99.90;;;;;;5126839;28;20019;-96
2022/09/06 09:50:28;;;;;;;10.95;8.07;;;23.30;99.90;;;;;;5122364;28;20039;-96
2022/09/06 09:52:54;;;;;;;9.63;8.02;;;23.40;99.90;;;;;;5115100;28;20035;-89
2022/09/06 09:55:24;;;;;;;11.73;7.40;;;23.40;99.90;;;;;;5112888;28;20040;-92
2022/09/06 09:57:55;;;;;;;11.63;7.60;;;23.50;99.90;;;;;;5099785;28;20036;-91
2022/09/06 10:00:38;;;;;;;9.90;7.47;;;23.60;99.90;;;;;;5106681;28;20127;-92
2022/09/06 10:03:19;;;;;;;10.68;8.75;;;23.50;99.90;;;;;;5324269;22;20059;-92
2022/09/06 10:05:59;;;;;;;11.88;7.90;;;23.50;99.90;;;;;;5137652;27;20048;-96
2022/09/06 10:08:38;;;;;;;;;;;23.60;99.90;;;;;;5115470;28;20131;-95
2022/09/06 10:11:03;;;;;;;11.43;9.25;;;23.50;99.90;;;;;;5129681;28;19908;-95
2022/09/06 10:13:30;;;;;;;10.13;7.90;;;23.60;99.90;;;;;;5116016;28;20032;-92
2022/09/06 10:15:57;;;;;;;10.90;8.00;;;23.60;99.90;;;;;;5115094;28;20067;-93
2022/09/06 10:18:52;;;;;;;9.07;7.43;;;23.70;99.90;;;;;;5087064;27;20045;-92
2022/09/06 10:21:21;;;;;;;12.02;9.90;;;23.80;99.90;;;;;;5103718;28;20084;-91
2022/09/06 10:24:13;;;;;;;12.50;11.02;;;23.80;99.90;;;;;;5100098;28;20081;-91
2022/09/06 10:26:45;;;;;;;14.02;11.65;;;23.80;99.90;;;;;;5080994;28;20044;-94
2022/09/06 10:29:13;;;;;;;10.60;9.50;;;23.80;99.90;;;;;;5108923;27;20107;-94
2022/09/06 10:31:38;;;;;;;11.15;9.55;;;23.80;99.90;;;;;;5088344;28;20048;-93
2022/09/06 10:34:07;;;;;;;13.77;12.10;;;23.90;99.90;;;;;;5098206;28;20409;-92
2022/09/06 10:36:38;;;;;;;14.98;11.60;;;23.90;99.90;;;;;;5112523;28;20051;-90
2022/09/06 10:39:42;;;;;;;12.40;10.27;;;24.00;99.90;;;;;;5098284;27;20043;-94
2022/09/06 10:42:13;;;;;;;11.18;9.38;;;24.00;99.90;;;;;;5094580;28;20047;-96
2022/09/06 10:45:17;;;;;;;11.13;9.90;;;24.00;99.90;;;;;;5096236;27;20036;-87
2022/09/06 10:47:57;;;;;;;12.27;10.82;;;24.10;99.90;;;;;;5112512;27;20047;-87
2022/09/06 10:50:50;;;;;;;11.77;10.43;;;24.10;99.90;;;;;;5114308;27;20039;-87
2022/09/06 10:53:45;;;;;;;11.60;10.20;;;24.20;99.90;;;;;;5111180;28;20043;-88
2022/09/06 10:56:19;;;;;;;12.18;10.82;;;24.20;99.90;;;;;;5092206;28;20081;-88
2022/09/06 10:58:56;;;;;;;12.00;10.38;;;24.20;99.90;;;;;;5091555;28;20070;-86
2022/09/06 11:01:52;;;;;;;13.05;9.73;;;24.20;99.90;;;;;;5110552;28;20043;-87
2022/09/06 11:04:26;;;;;;;11.18;8.95;;;24.20;99.90;;;;;;5090773;28;20058;-89
2022/09/06 11:07:01;;;;;;;10.57;8.82;;;24.20;99.90;;;;;;5090506;28;20090;-87
2022/09/06 11:09:41;;;;;;;12.63;10.52;;;24.30;99.90;;;;;;5092576;28;20075;-89
2022/09/06 11:12:23;;;;;;;11.60;10.43;;;24.30;99.90;;;;;;5112017;28;20050;-88
2022/09/06 11:14:49;;;;;;;10.32;8.40;;;24.40;99.90;;;;;;5093099;28;20070;-91
2022/09/06 11:17:34;;;;;;;10.25;8.80;;;24.40;99.90;;;;;;5110376;28;20044;-87
2022/09/06 11:20:07;;;;;;;11.15;9.05;;;24.40;99.90;;;;;;5075129;28;20047;-92
2022/09/06 11:23:29;;;;;;;11.50;8.65;;;24.50;99.90;;;;;;5075147;28;20040;-87
2022/09/06 11:26:07;;;;;;;10.02;6.97;;;24.50;99.90;;;;;;5007415;28;20058;-92
2022/09/06 11:28:45;;;;;;;10.23;7.50;;;24.50;99.90;;;;;;4977045;28;20074;-90
2022/09/06 11:31:19;;;;;;;10.57;9.00;;;24.60;99.90;;;;;;4974714;28;20185;-86
2022/09/06 11:33:44;;;;;;;9.68;6.95;;;24.60;99.90;;;;;;4992014;28;20045;-88
2022/09/06 11:36:26;;;;;;;9.32;7.43;;;24.70;99.90;;;;;;4990979;28;20057;-89
2022/09/06 11:38:54;;;;;;;11.02;7.05;;;24.70;99.90;;;;;;4973815;28;20041;-91
2022/09/06 11:41:20;;;;;;;9.75;7.05;;;24.70;99.90;;;;;;5007517;28;20058;-87
2022/09/06 11:43:49;;;;;;;8.88;7.18;;;24.70;99.90;;;;;;5007158;28;20132;-89
2022/09/06 11:46:33;;;;;;;9.43;6.63;;;24.70;99.90;;;;;;4991506;28;20541;-91
2022/09/06 11:49:26;;;;;;;9.27;7.00;;;24.80;99.90;;;;;;4975535;28;20057;-87
2022/09/06 11:51:52;;;;;;;8.70;6.28;;;24.80;99.90;;;;;;4990698;28;20049;-87
2022/09/06 11:54:41;;;;;;;8.70;6.70;;;24.80;99.90;;;;;;5008193;28;20049;-91
2022/09/06 11:57:07;;;;;;;9.93;7.20;;;24.90;99.90;;;;;;4990863;28;20053;-87
2022/09/06 11:59:44;;;;;;;8.25;6.78;;;24.90;99.90;;;;;;5010825;28;20042;-89
2022/09/06 12:02:39;;;;;;;9.35;6.68;;;24.90;99.90;;;;;;5072112;28;20055;-92
2022/09/06 12:05:06;;;;;;;8.70;7.07;;;25.00;99.90;;;;;;5075573;28;20048;-90
2022/09/06 12:08:10;;;;;;;9.23;6.60;;;25.00;99.90;;;;;;5092338;28;20112;-90
2022/09/06 12:10:38;;;;;;;8.85;5.93;;;25.00;99.90;;;;;;5070544;28;20138;-90
2022/09/06 12:13:39;;;;;;;9.05;7.20;;;25.10;99.90;;;;;;5074861;28;20048;-91
2022/09/06 12:16:06;;;;;;;10.05;7.18;;;25.10;99.90;;;;;;5109014;28;20122;-87
2022/09/06 12:18:52;;;;;;;8.95;6.60;;;25.00;99.90;;;;;;5092236;28;20522;-91
2022/09/06 12:21:36;;;;;;;8.98;6.47;;;25.10;99.90;;;;;;5075625;28;20035;-90
2022/09/06 12:24:03;;;;;;;9.00;5.90;;;25.10;99.90;;;;;;5109948;28;20048;-92
2022/09/06 12:27:06;;;;;;;9.70;6.50;;;25.10;99.90;;;;;;5075695;28;20086;-91
2022/09/06 12:29:32;;;;;;;8.55;6.30;;;25.20;99.90;;;;;;5093487;28;20056;-90
2022/09/06 12:32:03;;;;;;;8.63;5.63;;;25.30;99.90;;;;;;5093135;28;20066;-91
2022/09/06 12:34:29;;;;;;;;;;;25.30;99.90;;;;;;5077102;28;20407;-88
2022/09/06 12:37:02;;;;;;;8.30;5.88;;;25.30;99.90;;;;;;5074851;28;19919;-91
2022/09/06 12:39:28;;;;;;;8.95;6.43;;;25.30;99.90;;;;;;5092859;28;20047;-91
2022/09/06 12:42:00;;;;;;;7.43;5.90;;;25.40;99.90;;;;;;5092047;28;20100;-89
2022/09/06 12:44:39;;;;;;;8.07;6.10;;;25.40;99.90;;;;;;5076576;28;20400;-91
2022/09/06 12:47:12;;;;;;;8.43;6.00;;;25.50;99.90;;;;;;5076871;28;20047;-89
2022/09/06 12:49:38;;;;;;;8.05;5.68;;;25.50;99.90;;;;;;5077759;28;20502;-91
2022/09/06 12:52:07;;;;;;;8.48;5.60;;;25.50;99.90;;;;;;5096738;28;20051;-91
2022/09/06 12:54:39;;;;;;;8.27;5.60;;;25.60;99.90;;;;;;5098044;28;20051;-90
2022/09/06 12:57:19;;;;;;;8.23;5.45;;;25.50;99.90;;;;;;5096310;28;20043;-90
2022/09/06 12:59:53;;;;;;;9.05;4.97;;;25.50;99.90;;;;;;5097649;28;20058;-91
2022/09/06 13:02:28;;;;;;;9.52;4.50;;;25.60;99.90;;;;;;5115453;28;20040;-91